Time;durP1;ratioP1;P1;durP2;ratioP2;P2;SDS_P1;SDS_P2;PMS_P1;PMS_P2;Temp;Humidity;BMP_temperature;BMP_pressure;BME280_temperature;BME280_humidity;BME280_pressure;Samples;Min_cycle;Max_cycle;Signal;HPM_P1;HPM_P2
2021/12/03 00:01:22;;;;;;;;;;;;;;;-144.99;100.00;52664.16;5053400;28;19973;-62
2021/12/03 00:03:48;;;;;;;;;;;;;;;-144.99;100.00;52692.69;5051748;28;20001;-61
2021/12/03 00:06:15;;;;;;;;;;;;;;;-144.99;100.00;52688.63;5053507;28;19989;-64
2021/12/03 00:08:42;;;;;;;;;;;;;;;-144.99;100.00;52678.44;5046213;28;20015;-63
2021/12/03 00:11:10;;;;;;;;;;;;;;;-144.99;100.00;52664.16;5048439;28;19977;-62
2021/12/03 00:13:38;;;;;;;;;;;;;;;-144.99;100.00;52676.38;5052737;28;20480;-61
2021/12/03 00:16:05;;;;;;;;;;;;;;;-144.99;100.00;52694.72;5052683;28;19984;-63
2021/12/03 00:18:32;;;;;;;;;;;;;;;-144.99;100.00;52696.78;5051432;28;19973;-60
2021/12/03 00:21:01;;;;;;;;;;;;;;;-144.99;100.00;52664.16;5052030;28;20000;-61
2021/12/03 00:23:28;;;;;;;;;;;;;;;-144.99;100.00;52631.53;5052713;28;20028;-63
2021/12/03 00:25:54;;;;;;;;;;;;;;;-144.99;100.00;52668.22;5049893;28;20406;-62
2021/12/03 00:28:21;;;;;;;;;;;;;;;-144.99;100.00;52686.59;5048718;28;19973;-62
2021/12/03 00:30:49;;;;;;;;;;;;;;;-144.99;100.00;52702.88;5050622;28;20052;-63
2021/12/03 00:33:15;;;;;;;;;;;;;;;-144.99;100.00;52690.66;5052431;28;20076;-61
2021/12/03 00:35:42;;;;;;;;;;;;;;;-144.99;100.00;52647.84;5052219;28;19974;-62
2021/12/03 00:38:08;;;;;;;;;;;;;;;-144.99;100.00;52649.88;5050953;28;20450;-62
2021/12/03 00:40:36;;;;;;;;;;;;;;;-144.99;100.00;52674.34;5052488;28;19973;-63
2021/12/03 00:43:03;;;;;;;;;;;;;;;-144.99;100.00;52660.09;5052283;28;19993;-63
2021/12/03 00:45:31;;;;;;;;;;;;;;;-144.99;100.00;52688.63;5051938;28;20068;-63
2021/12/03 00:47:59;;;;;;;;;;;;;;;-144.99;100.00;52660.09;5051568;28;20394;-62
2021/12/03 00:50:27;;;;;;;;;;;;;;;-144.99;100.00;52633.59;5050897;28;19984;-63
2021/12/03 00:52:53;;;;;;;;;;;;;;;-144.99;100.00;52713.09;5052645;28;20020;-62
2021/12/03 00:55:20;;;;;;;;;;;;;;;-144.99;100.00;52692.69;5051896;28;19977;-61
2021/12/03 00:57:46;;;;;;;;;;;;;;;-144.99;100.00;52692.69;5052304;28;19973;-62
2021/12/03 01:00:16;;;;;;;;;;;;;;;-144.99;100.00;52672.31;5042374;28;19973;-62
2021/12/03 01:02:42;;;;;;;;;;;;;;;-144.99;100.00;52688.63;5055468;28;20437;-62
2021/12/03 01:05:10;;;;;;;;;;;;;;;-144.99;100.00;52688.63;5053752;28;19979;-63
2021/12/03 01:07:39;;;;;;;;;;;;;;;-144.99;100.00;52660.09;5053774;28;20052;-63
2021/12/03 01:10:07;;;;;;;;;;;;;;;-144.99;100.00;52664.16;5058385;28;20330;-66
2021/12/03 01:12:34;;;;;;;;;;;;;;;-144.99;100.00;52694.72;5062218;28;19973;-64
2021/12/03 01:15:01;;;;;;;;;;;;;;;-144.99;100.00;52647.84;5052509;28;20429;-64
2021/12/03 01:17:27;;;;;;;;;;;;;;;-144.99;100.00;52647.84;5054855;28;20200;-64
2021/12/03 01:19:54;;;;;;;;;;;;;;;-144.99;100.00;52690.66;5049760;28;19988;-65
2021/12/03 01:22:21;;;;;;;;;;;;;;;-144.99;100.00;52676.38;5052512;28;19977;-64
2021/12/03 01:24:48;;;;;;;;;;;;;;;-144.99;100.00;52668.22;5051983;28;20378;-65
2021/12/03 01:27:14;;;;;;;;;;;;;;;-144.99;100.00;52631.53;5054862;28;20461;-64
2021/12/03 01:29:41;;;;;;;;;;;;;;;-144.99;100.00;52631.53;5055952;28;20009;-63
2021/12/03 01:32:08;;;;;;;;;;;;;;;-144.99;100.00;52692.69;5051566;28;20364;-64
2021/12/03 01:34:34;;;;;;;;;;;;;;;-144.99;100.00;52656.00;5056281;28;19989;-64
2021/12/03 01:37:00;;;;;;;;;;;;;;;-144.99;100.00;52662.13;5057377;28;19981;-65
2021/12/03 01:39:28;;;;;;;;;;;;;;;-144.99;100.00;52688.63;5054125;28;19980;-63
2021/12/03 01:41:55;;;;;;;;;;;;;;;-144.99;100.00;52676.38;5058962;28;19987;-64
2021/12/03 01:44:21;;;;;;;;;;;;;;;-144.99;100.00;52660.09;5059523;28;19989;-64
2021/12/03 01:46:47;;;;;;;;;;;;;;;-144.99;100.00;52660.09;5056634;28;19989;-64
2021/12/03 01:49:15;;;;;;;;;;;;;;;-144.99;100.00;52656.00;5052293;28;19973;-63
2021/12/03 01:51:41;;;;;;;;;;;;;;;-144.99;100.00;52680.47;5049647;28;20008;-63
2021/12/03 01:54:07;;;;;;;;;;;;;;;-144.99;100.00;52635.63;5051193;28;20009;-61
2021/12/03 01:56:37;;;;;;;;;;;;;;;-144.99;100.00;52700.84;5051152;28;19977;-61
2021/12/03 01:59:04;;;;;;;;;;;;;;;-144.99;100.00;52635.63;5051079;28;19981;-62
2021/12/03 02:01:30;;;;;;;;;;;;;;;-144.99;100.00;52653.97;5049758;28;20173;-61
2021/12/03 02:03:58;;;;;;;;;;;;;;;-144.99;100.00;52668.22;5049151;28;19993;-62
2021/12/03 02:06:25;;;;;;;;;;;;;;;-144.99;100.00;52664.16;5054239;28;19993;-61
2021/12/03 02:08:52;;;;;;;;;;;;;;;-144.99;100.00;52694.72;5043259;28;19977;-62
2021/12/03 02:11:19;;;;;;;;;;;;;;;-144.99;100.00;52647.84;5047999;28;20366;-62
2021/12/03 02:13:46;;;;;;;;;;;;;;;-144.99;100.00;52684.53;5046817;28;19993;-62
2021/12/03 02:16:14;;;;;;;;;;;;;;;-144.99;100.00;52668.22;5051283;28;20063;-63
2021/12/03 02:18:40;;;;;;;;;;;;;;;-144.99;100.00;52676.38;5042382;28;19977;-62
2021/12/03 02:21:09;;;;;;;;;;;;;;;-144.99;100.00;52664.16;5050836;28;19999;-62
2021/12/03 02:23:35;;;;;;;;;;;;;;;-144.99;100.00;52676.38;5044521;28;19989;-61
2021/12/03 02:26:02;;;;;;;;;;;;;;;-144.99;100.00;52629.50;5048912;28;20079;-63
2021/12/03 02:28:30;;;;;;;;;;;;;;;-144.99;100.00;52660.09;5051025;28;19973;-62
2021/12/03 02:30:57;;;;;;;;;;;;;;;-144.99;100.00;52672.31;5050275;28;20060;-63
2021/12/03 02:33:23;;;;;;;;;;;;;;;-144.99;100.00;52631.53;5049322;28;19996;-62
2021/12/03 02:35:50;;;;;;;;;;;;;;;-144.99;100.00;52611.16;5050247;28;20464;-63
2021/12/03 02:38:20;;;;;;;;;;;;;;;-144.99;100.00;52664.16;5050809;28;19981;-64
2021/12/03 02:40:47;;;;;;;;;;;;;;;-144.99;100.00;52656.00;5050848;28;19987;-65
2021/12/03 02:43:14;;;;;;;;;;;;;;;-144.99;100.00;52635.63;5048691;28;20004;-63
2021/12/03 02:45:40;;;;;;;;;;;;;;;-144.99;100.00;52676.38;5050736;28;19977;-65
2021/12/03 02:48:07;;;;;;;;;;;;;;;-144.99;100.00;52635.63;5039750;28;19993;-64
2021/12/03 02:50:34;;;;;;;;;;;;;;;-144.99;100.00;52651.94;5050426;28;19981;-62
2021/12/03 02:53:00;;;;;;;;;;;;;;;-144.99;100.00;52660.09;5046193;28;19993;-62
2021/12/03 02:55:28;;;;;;;;;;;;;;;-144.99;100.00;52692.69;5036787;28;20353;-62
2021/12/03 02:57:55;;;;;;;;;;;;;;;-144.99;100.00;52603.00;5049142;28;19977;-62
2021/12/03 03:00:22;;;;;;;;;;;;;;;-144.99;100.00;52664.16;5050976;28;20553;-61
2021/12/03 03:02:48;;;;;;;;;;;;;;;-144.99;100.00;52631.53;5055715;28;20426;-61
2021/12/03 03:05:16;;;;;;;;;;;;;;;-144.99;100.00;52643.78;5057885;28;19973;-61
2021/12/03 03:07:43;;;;;;;;;;;;;;;-144.99;100.00;52639.69;5050727;28;20104;-62
2021/12/03 03:10:11;;;;;;;;;;;;;;;-144.99;100.00;52651.94;5045763;28;19979;-63
2021/12/03 03:12:39;;;;;;;;;;;;;;;-144.99;100.00;52645.81;5050387;28;19973;-62
2021/12/03 03:15:07;;;;;;;;;;;;;;;-144.99;100.00;52651.94;5048952;28;19973;-63
2021/12/03 03:17:33;;;;;;;;;;;;;;;-144.99;100.00;52656.00;5050657;28;19988;-63
2021/12/03 03:20:00;;;;;;;;;;;;;;;-144.99;100.00;52676.38;5049783;28;19977;-63
2021/12/03 03:22:28;;;;;;;;;;;;;;;-144.99;100.00;52639.69;5049768;28;19977;-63
2021/12/03 03:24:59;;;;;;;;;;;;;;;-144.99;100.00;52639.69;5050139;28;20000;-63
2021/12/03 03:27:26;;;;;;;;;;;;;;;-144.99;100.00;52660.09;5046473;28;19995;-63
2021/12/03 03:29:54;;;;;;;;;;;;;;;-144.99;100.00;52680.47;5051903;28;19978;-63
2021/12/03 03:32:20;;;;;;;;;;;;;;;-144.99;100.00;52635.63;5053482;28;19980;-60
2021/12/03 03:34:47;;;;;;;;;;;;;;;-144.99;100.00;52611.16;5053306;28;19996;-60
2021/12/03 03:37:13;;;;;;;;;;;;;;;-144.99;100.00;52680.47;5052094;28;20040;-62
2021/12/03 03:39:40;;;;;;;;;;;;;;;-144.99;100.00;52698.81;5050086;28;20319;-62
2021/12/03 03:42:07;;;;;;;;;;;;;;;-144.99;100.00;52660.09;5051030;28;19973;-64
2021/12/03 03:44:34;;;;;;;;;;;;;;;-144.99;100.00;52643.78;5049995;28;19989;-62
2021/12/03 03:47:02;;;;;;;;;;;;;;;-144.99;100.00;52639.69;5047506;28;19997;-61
2021/12/03 03:49:29;;;;;;;;;;;;;;;-144.99;100.00;52668.22;5049174;28;19980;-61
2021/12/03 03:51:56;;;;;;;;;;;;;;;-144.99;100.00;52662.13;5049823;28;19986;-63
2021/12/03 03:54:23;;;;;;;;;;;;;;;-144.99;100.00;52660.09;5049360;28;19996;-63
2021/12/03 03:56:49;;;;;;;;;;;;;;;-144.99;100.00;52692.69;5047799;28;20476;-63
2021/12/03 03:59:17;;;;;;;;;;;;;;;-144.99;100.00;52656.00;5049476;28;19973;-63
2021/12/03 04:01:44;;;;;;;;;;;;;;;-144.99;100.00;52660.09;5046058;28;19956;-64
2021/12/03 04:04:11;;;;;;;;;;;;;;;-144.99;100.00;52680.47;5048562;28;20001;-63
2021/12/03 04:06:38;;;;;;;;;;;;;;;-144.99;100.00;52627.47;5049283;28;19980;-62
2021/12/03 04:09:04;;;;;;;;;;;;;;;-144.99;100.00;52651.94;5047558;28;19979;-62
2021/12/03 04:11:31;;;;;;;;;;;;;;;-144.99;100.00;52651.94;5049402;28;19984;-64
2021/12/03 04:13:57;;;;;;;;;;;;;;;-144.99;100.00;52668.22;5048853;28;20004;-63
2021/12/03 04:16:24;;;;;;;;;;;;;;;-144.99;100.00;52621.34;5049266;28;19980;-62
2021/12/03 04:18:50;;;;;;;;;;;;;;;-144.99;100.00;52649.88;5045411;28;19981;-60
2021/12/03 04:21:18;;;;;;;;;;;;;;;-144.99;100.00;52635.63;5049135;28;19973;-61
2021/12/03 04:23:44;;;;;;;;;;;;;;;-144.99;100.00;52662.13;5049098;28;20150;-62
2021/12/03 04:26:11;;;;;;;;;;;;;;;-144.99;100.00;52653.97;5046992;28;19984;-62
2021/12/03 04:28:37;;;;;;;;;;;;;;;-144.99;100.00;52639.69;5046475;28;20004;-62
2021/12/03 04:31:03;;;;;;;;;;;;;;;-144.99;100.00;52698.81;5049580;28;19988;-61
2021/12/03 04:33:30;;;;;;;;;;;;;;;-144.99;100.00;52647.84;5052611;28;19989;-59
2021/12/03 04:35:56;;;;;;;;;;;;;;;-144.99;100.00;52668.22;5052258;28;20501;-59
2021/12/03 04:38:24;;;;;;;;;;;;;;;-144.99;100.00;52656.00;5052068;28;20079;-61
2021/12/03 04:40:51;;;;;;;;;;;;;;;-144.99;100.00;52619.31;5052631;28;19977;-60
2021/12/03 04:43:17;;;;;;;;;;;;;;;-144.99;100.00;52670.28;5052754;28;19989;-60
2021/12/03 04:45:43;;;;;;;;;;;;;;;-144.99;100.00;52639.69;5053698;28;19981;-60
2021/12/03 04:48:10;;;;;;;;;;;;;;;-144.99;100.00;52696.78;5055980;28;20319;-65
2021/12/03 04:50:38;;;;;;;;;;;;;;;-144.99;100.00;52696.78;5051760;28;20452;-63
2021/12/03 04:53:04;;;;;;;;;;;;;;;-144.99;100.00;52627.47;5054149;28;19993;-64
2021/12/03 04:58:12;;;;;;;;;;;;;;;-144.99;100.00;52594.84;5062639;28;19985;-63
2021/12/03 05:00:41;;;;;;;;;;;;;;;-144.99;100.00;52651.94;5068269;28;19980;-62
2021/12/03 05:03:07;;;;;;;;;;;;;;;-144.99;100.00;52680.47;5072202;28;19992;-62
2021/12/03 05:05:34;;;;;;;;;;;;;;;-144.99;100.00;52639.69;5067103;28;19973;-62
2021/12/03 05:08:04;;;;;;;;;;;;;;;-144.99;100.00;52619.31;5070462;28;19991;-62
2021/12/03 05:10:32;;;;;;;;;;;;;;;-144.99;100.00;52621.34;5069588;28;19973;-62
2021/12/03 05:13:01;;;;;;;;;;;;;;;-144.99;100.00;52635.63;5064303;28;19996;-62
2021/12/03 05:15:28;;;;;;;;;;;;;;;-144.99;100.00;52674.34;5069534;28;19984;-61
2021/12/03 05:17:54;;;;;;;;;;;;;;;-144.99;100.00;52647.84;5071303;28;20293;-66
2021/12/03 05:20:20;;;;;;;;;;;;;;;-144.99;100.00;52668.22;5069476;28;19979;-65
2021/12/03 05:22:47;;;;;;;;;;;;;;;-144.99;100.00;52658.03;5067307;28;19976;-65
2021/12/03 05:25:13;;;;;;;;;;;;;;;-144.99;100.00;52676.38;5070342;28;20415;-63
2021/12/03 05:27:40;;;;;;;;;;;;;;;-144.99;100.00;52660.09;5071004;28;20000;-63
2021/12/03 05:30:09;;;;;;;;;;;;;;;-144.99;100.00;52635.63;5069251;28;20212;-64
2021/12/03 05:32:36;;;;;;;;;;;;;;;-144.99;100.00;52643.78;5066211;28;20421;-63
2021/12/03 05:35:03;;;;;;;;;;;;;;;-144.99;100.00;52635.63;5069811;28;20368;-64
2021/12/03 05:37:29;;;;;;;;;;;;;;;-144.99;100.00;52664.16;5069356;28;19973;-65
2021/12/03 05:39:56;;;;;;;;;;;;;;;-144.99;100.00;52647.84;5069964;28;19981;-63
2021/12/03 05:42:22;;;;;;;;;;;;;;;-144.99;100.00;52594.84;5069173;28;20017;-63
2021/12/03 05:44:48;;;;;;;;;;;;;;;-144.99;100.00;52627.47;5069491;28;19995;-64
2021/12/03 05:47:16;;;;;;;;;;;;;;;-144.99;100.00;52660.09;5063824;28;19980;-63
2021/12/03 05:49:42;;;;;;;;;;;;;;;-144.99;100.00;52684.53;5069694;28;20429;-62
2021/12/03 05:52:09;;;;;;;;;;;;;;;-144.99;100.00;52647.84;5066953;28;19983;-63
2021/12/03 05:54:35;;;;;;;;;;;;;;;-144.99;100.00;52631.53;5062134;28;19993;-65
2021/12/03 05:57:01;;;;;;;;;;;;;;;-144.99;100.00;52680.47;5069796;28;20084;-64
2021/12/03 05:59:28;;;;;;;;;;;;;;;-144.99;100.00;52664.16;5068658;28;19983;-65
2021/12/03 06:01:54;;;;;;;;;;;;;;;-144.99;100.00;52647.84;4367705;28;10000850;-65
2021/12/03 06:04:22;;;;;;;;;;;;;;;-144.99;100.00;52651.94;5066300;28;20428;-63
2021/12/03 06:06:48;;;;;;;;;;;;;;;-144.99;100.00;52643.78;5065222;28;20457;-63
2021/12/03 06:09:15;;;;;;;;;;;;;;;-144.99;100.00;52651.94;5066873;28;20080;-64
2021/12/03 06:11:41;;;;;;;;;;;;;;;-144.99;100.00;52684.53;5066301;28;19973;-64
2021/12/03 06:14:08;;;;;;;;;;;;;;;-144.99;100.00;52660.09;5064309;28;20364;-64
2021/12/03 06:16:34;;;;;;;;;;;;;;;-144.99;100.00;52660.09;5067379;28;20305;-63
2021/12/03 06:19:00;;;;;;;;;;;;;;;-144.99;100.00;52645.81;5066310;28;20479;-65
2021/12/03 06:21:28;;;;;;;;;;;;;;;-144.99;100.00;52651.94;5066924;28;19964;-64
2021/12/03 06:23:54;;;;;;;;;;;;;;;-144.99;100.00;52639.69;5064456;28;19997;-67
2021/12/03 06:26:21;;;;;;;;;;;;;;;-144.99;100.00;52627.47;5066646;28;20441;-65
2021/12/03 06:28:47;;;;;;;;;;;;;;;-144.99;100.00;52694.72;5062688;28;19989;-65
2021/12/03 06:31:14;;;;;;;;;;;;;;;-144.99;100.00;52645.81;5067026;28;19977;-64
2021/12/03 06:33:40;;;;;;;;;;;;;;;-144.99;100.00;52688.63;5065096;28;20000;-63
2021/12/03 06:36:06;;;;;;;;;;;;;;;-144.99;100.00;52647.84;5065967;28;19976;-66
2021/12/03 06:38:34;;;;;;;;;;;;;;;-144.99;100.00;52623.38;5066083;28;20073;-67
2021/12/03 06:41:01;;;;;;;;;;;;;;;-144.99;100.00;52668.22;5066294;28;19977;-63
2021/12/03 06:43:28;;;;;;;;;;;;;;;-144.99;100.00;52639.69;5064387;28;20357;-63
2021/12/03 06:45:54;;;;;;;;;;;;;;;-144.99;100.00;52668.22;5066254;28;19977;-65
2021/12/03 06:48:20;;;;;;;;;;;;;;;-144.99;100.00;52684.53;5066412;28;20218;-66
2021/12/03 06:50:49;;;;;;;;;;;;;;;-144.99;100.00;52656.00;5065200;28;20425;-64
2021/12/03 06:53:16;;;;;;;;;;;;;;;-144.99;100.00;52647.84;5065763;28;20012;-66
2021/12/03 06:55:46;;;;;;;;;;;;;;;-144.99;100.00;52623.38;5064109;28;19981;-65
2021/12/03 06:58:14;;;;;;;;;;;;;;;-144.99;100.00;52647.84;5062808;28;20434;-64
2021/12/03 07:00:40;;;;;;;;;;;;;;;-144.99;100.00;52668.22;5065877;28;20004;-65
2021/12/03 07:03:06;;;;;;;;;;;;;;;-144.99;100.00;52629.50;5062115;28;19997;-65
2021/12/03 07:05:33;;;;;;;;;;;;;;;-144.99;100.00;52680.47;5063739;28;19983;-64
2021/12/03 07:07:59;;;;;;;;;;;;;;;-144.99;100.00;52635.63;5064518;28;19993;-65
2021/12/03 07:10:26;;;;;;;;;;;;;;;-144.99;100.00;52627.47;5066087;28;20075;-66
2021/12/03 07:12:53;;;;;;;;;;;;;;;-144.99;100.00;52656.00;5065734;28;20002;-64
2021/12/03 07:15:20;;;;;;;;;;;;;;;-144.99;100.00;52643.78;5063409;28;19977;-66
2021/12/03 07:17:50;;;;;;;;;;;;;;;-144.99;100.00;52643.78;5059545;28;20457;-64
2021/12/03 07:20:17;;;;;;;;;;;;;;;-144.99;100.00;52645.81;5065657;28;19973;-64
2021/12/03 07:22:44;;;;;;;;;;;;;;;-144.99;100.00;52660.09;5066205;28;19976;-66
2021/12/03 07:25:11;;;;;;;;;;;;;;;-144.99;100.00;52656.00;5064046;28;19981;-66
2021/12/03 07:27:37;;;;;;;;;;;;;;;-144.99;100.00;52643.78;5065170;28;19993;-64
2021/12/03 07:30:06;;;;;;;;;;;;;;;-144.99;100.00;52658.03;5064647;28;19981;-66
2021/12/03 07:32:32;;;;;;;;;;;;;;;-144.99;100.00;52623.38;5066273;28;19993;-65
2021/12/03 07:34:59;;;;;;;;;;;;;;;-144.99;100.00;52668.22;5063514;28;20361;-64
2021/12/03 07:37:25;;;;;;;;;;;;;;;-144.99;100.00;52664.16;5064033;28;20445;-68
2021/12/03 07:39:52;;;;;;;;;;;;;;;-144.99;100.00;52627.47;5065601;28;20294;-69
2021/12/03 07:42:18;;;;;;;;;;;;;;;-144.99;100.00;52660.09;5065949;28;20284;-69
2021/12/03 07:44:44;;;;;;;;;;;;;;;-144.99;100.00;52643.78;5065132;28;20000;-69
2021/12/03 07:47:12;;;;;;;;;;;;;;;-144.99;100.00;52643.78;5063109;28;19977;-69
2021/12/03 07:49:40;;;;;;;;;;;;;;;-144.99;100.00;52660.09;5065073;28;20074;-69
2021/12/03 07:52:07;;;;;;;;;;;;;;;-144.99;100.00;52619.31;5061296;28;20024;-69
2021/12/03 07:54:33;;;;;;;;;;;;;;;-144.99;100.00;52656.00;5059765;28;20084;-69
2021/12/03 07:57:00;;;;;;;;;;;;;;;-144.99;100.00;52643.78;5061813;28;19985;-69
2021/12/03 07:59:26;;;;;;;;;;;;;;;-144.99;100.00;52643.78;5059998;28;19977;-69
2021/12/03 08:01:52;;;;;;;;;;;;;;;-144.99;100.00;52660.09;5060305;28;20008;-69
2021/12/03 08:04:20;;;;;;;;;;;;;;;-144.99;100.00;52631.53;5052662;28;19989;-69
2021/12/03 08:06:51;;;;;;;;;;;;;;;-144.99;100.00;52647.84;5061019;28;20346;-69
2021/12/03 08:09:18;;;;;;;;;;;;;;;-144.99;100.00;52649.88;5066484;28;20406;-70
2021/12/03 08:11:44;;;;;;;;;;;;;;;-144.99;100.00;52662.13;5059552;28;20372;-69
2021/12/03 08:14:11;;;;;;;;;;;;;;;-144.99;100.00;52662.13;5056405;28;20001;-68
2021/12/03 08:16:37;;;;;;;;;;;;;;;-144.99;100.00;52625.44;5068935;28;20003;-68
2021/12/03 08:19:04;;;;;;;;;;;;;;;-144.99;100.00;52627.47;5054188;28;20509;-68
2021/12/03 08:21:32;;;;;;;;;;;;;;;-144.99;100.00;52619.31;5059256;28;20015;-67
2021/12/03 08:24:00;;;;;;;;;;;;;;;-144.99;100.00;52656.00;5061262;28;20019;-66
2021/12/03 08:26:26;;;;;;;;;;;;;;;-144.99;100.00;52590.78;5068269;28;19973;-67
2021/12/03 08:28:52;;;;;;;;;;;;;;;-144.99;100.00;52645.81;5054955;28;20004;-67
2021/12/03 08:31:19;;;;;;;;;;;;;;;-144.99;100.00;52619.31;5048927;28;19986;-67
2021/12/03 08:33:45;;;;;;;;;;;;;;;-144.99;99.36;52603.00;5048510;28;20497;-67
2021/12/03 08:36:12;;;;;;;;;;;;;;;-144.99;97.05;52617.28;5061000;28;19991;-68
2021/12/03 08:38:40;;;;;;;;;;;;;;;-144.99;96.40;52631.53;5069299;28;20492;-68
2021/12/03 08:41:07;;;;;;;;;;;;;;;-144.99;95.93;52639.69;5068949;28;19985;-67
2021/12/03 08:43:34;;;;;;;;;;;;;;;-144.99;95.06;52611.16;5068863;28;20007;-68
2021/12/03 08:46:08;;;;;;;;;;;;;;;-144.99;94.66;52625.44;5068632;28;19989;-68
2021/12/03 08:48:37;;;;;;;;;;;;;;;-144.99;94.45;52633.59;5066107;28;20061;-69
2021/12/03 08:51:20;;;;;;;;;;;;;;;-144.99;93.30;52635.63;5068122;28;19984;-68
2021/12/03 08:56:32;;;;;;;;;;;;;;;-144.99;91.26;52656.00;5068748;28;20003;-68
2021/12/03 08:58:58;;;;;;;;;;;;;;;-144.99;90.40;52619.31;5068369;28;20532;-69
2021/12/03 09:01:25;;;;;;;;;;;;;;;-144.99;89.73;52637.66;5066474;28;19995;-68
2021/12/03 09:03:52;;;;;;;;;;;;;;;-144.99;89.97;52564.28;5050989;28;20001;-70
2021/12/03 09:06:19;;;;;;;;;;;;;;;-144.99;89.41;52590.78;5068776;28;20075;-67
2021/12/03 09:08:45;;;;;;;;;;;;;;;-144.99;88.71;52617.28;5067993;28;20338;-70
2021/12/03 09:11:14;;;;;;;;;;;;;;;-144.99;88.20;52635.63;5067042;28;19963;-68
2021/12/03 09:13:41;;;;;;;;;;;;;;;-144.99;88.57;52674.34;5066855;28;20552;-68
2021/12/03 09:16:10;;;;;;;;;;;;;;;-144.99;89.29;52643.78;5067730;28;19981;-70
2021/12/03 09:18:37;;;;;;;;;;;;;;;-144.99;91.52;52635.63;5067293;28;19977;-68
2021/12/03 09:21:07;;;;;;;;;;;;;;;-144.99;91.63;52631.53;5067169;28;19981;-68
2021/12/03 09:23:40;;;;;;;;;;;;;;;-144.99;90.33;52603.00;5067522;28;20037;-69
2021/12/03 09:26:08;;;;;;;;;;;;;;;-144.99;90.81;52590.78;5067806;28;20071;-68
2021/12/03 09:28:37;;;;;;;;;;;;;;;-144.99;91.35;52615.25;5067453;28;20131;-68
2021/12/03 09:31:05;;;;;;;;;;;;;;;-144.99;92.46;52660.09;5067083;28;19981;-69
2021/12/03 09:33:33;;;;;;;;;;;;;;;-144.99;92.80;52623.38;5067662;28;20105;-68
2021/12/03 09:36:02;;;;;;;;;;;;;;;-144.99;93.42;52607.09;5063092;28;20310;-68
2021/12/03 09:38:31;;;;;;;;;;;;;;;-144.99;93.31;52598.94;5066581;28;19977;-68
2021/12/03 09:41:05;;;;;;;;;;;;;;;-144.99;93.91;52594.84;5066085;28;19981;-67
2021/12/03 09:43:31;;;;;;;;;;;;;;;-144.99;94.15;52641.72;5067167;28;20349;-69
2021/12/03 09:46:05;;;;;;;;;;;;;;;-144.99;94.27;52643.78;5067238;28;19980;-69
2021/12/03 09:48:42;;;;;;;;;;;;;;;-144.99;95.21;52631.53;5063679;28;20598;-69
2021/12/03 09:51:08;;;;;;;;;;;;;;;-144.99;96.33;52658.03;5067034;28;20378;-68
2021/12/03 09:54:01;;;;;;;;;;;;;;;-144.99;95.62;52639.69;5067104;28;20427;-71
2021/12/03 09:56:29;;;;;;;;;;;;;;;-144.99;96.45;52631.53;5062349;28;20465;-69
2021/12/03 10:01:45;;;;;;;;;;;;;;;-144.99;97.76;52615.25;5063924;28;20394;-69
2021/12/03 10:04:33;;;;;;;;;;;;;;;-144.99;98.92;52619.31;5054391;28;19993;-68
2021/12/03 10:10:41;;;;;;;;;;;;;;;-144.99;98.77;52641.72;5065282;28;20688;-69
2021/12/03 10:13:10;;;;;;;;;;;;;;;-144.99;99.40;52570.38;5066490;28;19992;-69
2021/12/03 10:15:46;;;;;;;;;;;;;;;-144.99;99.93;52672.31;5066591;28;20101;-69
2021/12/03 10:18:19;;;;;;;;;;;;;;;-144.99;100.00;52637.66;5067001;28;20219;-69
2021/12/03 10:20:49;;;;;;;;;;;;;;;-144.99;100.00;52627.47;5066447;28;20460;-70
2021/12/03 10:24:01;;;;;;;;;;;;;;;-144.99;100.00;52676.38;5066278;28;20436;-70
2021/12/03 10:29:16;;;;;;;;;;;;;;;-144.99;100.00;52586.69;5065424;28;20002;-71
2021/12/03 10:40:07;;;;;;;;;;;;;;;-144.99;100.00;52651.94;5058965;28;19981;-70
2021/12/03 10:42:44;;;;;;;;;;;;;;;-144.99;100.00;52656.00;5062466;28;20019;-69
2021/12/03 10:45:36;;;;;;;;;;;;;;;-144.99;100.00;52627.47;5061329;28;20023;-69
2021/12/03 10:51:07;;;;;;;;;;;;;;;-144.99;100.00;52623.38;5060628;28;20107;-69
2021/12/03 10:53:44;;;;;;;;;;;;;;;-144.99;100.00;52607.09;5066058;28;19992;-69
2021/12/03 10:56:33;;;;;;;;;;;;;;;-144.99;100.00;52623.38;5058975;28;20445;-69
2021/12/03 10:59:38;;;;;;;;;;;;;;;-144.99;100.00;52627.47;5064721;28;20049;-70
2021/12/03 11:30:47;;;;;;;;;;;;;;;-144.99;100.00;52607.09;5059849;28;20346;-69
2021/12/03 12:28:05;;;;;;;;;;;;;;;-144.99;100.00;52637.66;5060447;28;20360;-70
2021/12/03 12:45:05;;;;;;;;;;;;;;;-144.99;100.00;52603.00;5030850;28;20040;-70
2021/12/03 13:13:22;;;;;;;;;;;;;;;-144.99;100.00;52629.50;5040627;28;20108;-69
2021/12/03 14:36:38;;;;;;;;;;;;;;;-144.99;100.00;52647.84;5122941;27;20045;-71
2021/12/03 14:45:24;;;;;;;;;;;;;;;-144.99;100.00;52668.22;5067815;28;19992;-70
2021/12/03 14:48:23;;;;;;;;;;;;;;;-144.99;100.00;52603.00;5070449;28;19993;-70
2021/12/03 14:53:58;;;;;;;;;;;;;;;-144.99;100.00;52656.00;5062289;28;20345;-70
2021/12/03 14:56:27;;;;;;;;;;;;;;;-144.99;100.00;52615.25;5077600;28;20058;-69
2021/12/03 14:59:15;;;;;;;;;;;;;;;-144.99;100.00;52607.09;5080888;28;20082;-71
2021/12/03 15:01:48;;;;;;;;;;;;;;;-144.99;100.00;52649.88;5079281;28;19996;-71
2021/12/03 15:07:07;;;;;;;;;;;;;;;-144.99;100.00;52651.94;5080006;28;19984;-70
2021/12/03 15:09:36;;;;;;;;;;;;;;;-144.99;100.00;52603.00;4727855;28;10000527;-69
2021/12/03 15:12:32;;;;;;;;;;;;;;;-144.99;100.00;52623.38;5080267;28;20083;-70
2021/12/03 15:15:38;;;;;;;;;;;;;;;-144.99;100.00;52621.34;5081271;28;20095;-70
2021/12/03 15:26:35;;;;;;;;;;;;;;;-144.99;100.00;52668.22;5075092;28;19985;-70
2021/12/03 15:31:55;;;;;;;;;;;;;;;-144.99;100.00;52660.09;5077708;28;20026;-70
2021/12/03 15:37:18;;;;;;;;;;;;;;;-144.99;100.00;52623.38;5072016;28;19985;-69
2021/12/03 15:40:07;;;;;;;;;;;;;;;-144.99;100.00;52656.00;5081423;28;19976;-70
2021/12/03 15:56:37;;;;;;;;;;;;;;;-144.99;100.00;52629.50;5052943;28;20166;-70
2021/12/03 16:04:34;;;;;;;;;;;;;;;-144.99;100.00;52611.16;5061871;28;20087;-71
2021/12/03 16:07:11;;;;;;;;;;;;;;;-144.99;100.00;52651.94;5066898;28;20079;-71
2021/12/03 16:12:25;;;;;;;;;;;;;;;-144.99;100.00;52607.09;5053697;28;19987;-70
2021/12/03 16:15:04;;;;;;;;;;;;;;;-144.99;100.00;52631.53;5060905;28;20037;-72
2021/12/03 16:45:13;;;;;;;;;;;;;;;-144.99;100.00;52631.53;5071279;28;20003;-70
2021/12/03 16:47:59;;;;;;;;;;;;;;;-144.99;100.00;52617.28;5077033;28;19984;-69
2021/12/03 16:50:49;;;;;;;;;;;;;;;-144.99;100.00;52633.59;5085669;28;20076;-71
2021/12/03 16:53:22;;;;;;;;;;;;;;;-144.99;100.00;52639.69;5079951;28;20019;-69
2021/12/03 16:55:58;;;;;;;;;;;;;;;-144.99;100.00;52639.69;5086895;28;20006;-69
2021/12/03 16:58:24;;;;;;;;;;;;;;;-144.99;100.00;52627.47;5078427;28;19980;-69
2021/12/03 17:00:55;;;;;;;;;;;;;;;-144.99;100.00;52627.47;5085444;28;20025;-64
2021/12/03 17:03:27;;;;;;;;;;;;;;;-144.99;100.00;52668.22;5079069;28;19997;-64
2021/12/03 17:12:00;;;;;;;;;;;;;;;-144.99;100.00;52627.47;5102487;27;20328;-64
2021/12/03 17:18:08;;;;;;;;;;;;;;;-144.99;100.00;52596.88;5006787;28;20557;-66
2021/12/03 17:45:53;;;;;;;;;;;;;;;-144.99;100.00;52619.31;5014427;28;19982;-65
2021/12/03 17:48:29;;;;;;;;;;;;;;;-144.99;100.00;52627.47;5073376;28;19979;-64
2021/12/03 17:51:11;;;;;;;;;;;;;;;-144.99;100.00;52641.72;5074734;28;19992;-63
2021/12/03 17:54:00;;;;;;;;;;;;;;;-144.99;100.00;52643.78;5078444;28;20039;-63
2021/12/03 17:56:28;;;;;;;;;;;;;;;-144.99;100.00;52607.09;5078332;28;19987;-64
2021/12/03 17:58:57;;;;;;;;;;;;;;;-144.99;100.00;52625.44;5077668;28;20058;-64
2021/12/03 18:01:30;;;;;;;;;;;;;;;-144.99;100.00;52598.94;5073442;28;20012;-63
2021/12/03 18:04:04;;;;;;;;;;;;;;;-144.99;100.00;52621.34;5075811;28;20472;-63
2021/12/03 18:09:48;;;;;;;;;;;;;;;-144.99;100.00;52631.53;5075491;28;19978;-62
2021/12/03 18:12:58;;;;;;;;;;;;;;;-144.99;100.00;52611.16;5094297;28;19991;-64